sensor_id;sensor_type;location;lat;lon;timestamp;P1;durP1;ratioP1;P2;durP2;ratioP2
769;SDS011;368;48.698;9.116;2024-03-25T00:01:43;4.17;;;2.70;;
769;SDS011;368;48.698;9.116;2024-03-25T00:04:09;2.60;;;2.40;;
769;SDS011;368;48.698;9.116;2024-03-25T00:06:36;4.13;;;2.40;;
769;SDS011;368;48.698;9.116;2024-03-25T00:09:02;3.43;;;2.33;;
769;SDS011;368;48.698;9.116;2024-03-25T00:11:30;4.10;;;3.00;;
769;SDS011;368;48.698;9.116;2024-03-25T00:13:57;3.67;;;2.50;;
769;SDS011;368;48.698;9.116;2024-03-25T00:16:24;4.83;;;2.27;;
769;SDS011;368;48.698;9.116;2024-03-25T00:18:49;3.43;;;3.13;;
769;SDS011;368;48.698;9.116;2024-03-25T00:21:16;3.67;;;3.23;;
769;SDS011;368;48.698;9.116;2024-03-25T00:23:42;5.10;;;2.90;;
769;SDS011;368;48.698;9.116;2024-03-25T00:26:09;3.10;;;2.77;;
769;SDS011;368;48.698;9.116;2024-03-25T00:28:35;3.57;;;2.63;;
769;SDS011;368;48.698;9.116;2024-03-25T00:31:03;3.60;;;2.17;;
769;SDS011;368;48.698;9.116;2024-03-25T00:33:29;2.50;;;2.30;;
769;SDS011;368;48.698;9.116;2024-03-25T00:35:57;4.00;;;2.83;;
769;SDS011;368;48.698;9.116;2024-03-25T00:38:23;6.50;;;3.20;;
769;SDS011;368;48.698;9.116;2024-03-25T00:40:50;2.97;;;2.30;;
769;SDS011;368;48.698;9.116;2024-03-25T00:43:16;4.07;;;2.77;;
769;SDS011;368;48.698;9.116;2024-03-25T00:45:44;3.53;;;3.10;;
769;SDS011;368;48.698;9.116;2024-03-25T00:48:12;2.93;;;2.73;;
769;SDS011;368;48.698;9.116;2024-03-25T00:50:38;5.67;;;3.13;;
769;SDS011;368;48.698;9.116;2024-03-25T00:53:05;4.93;;;2.73;;
769;SDS011;368;48.698;9.116;2024-03-25T00:55:32;3.47;;;3.17;;
769;SDS011;368;48.698;9.116;2024-03-25T00:57:58;5.30;;;3.77;;
769;SDS011;368;48.698;9.116;2024-03-25T01:00:25;5.27;;;3.20;;
769;SDS011;368;48.698;9.116;2024-03-25T01:02:51;3.73;;;3.13;;
769;SDS011;368;48.698;9.116;2024-03-25T01:05:19;7.20;;;3.50;;
769;SDS011;368;48.698;9.116;2024-03-25T01:07:45;4.93;;;3.10;;
769;SDS011;368;48.698;9.116;2024-03-25T01:10:11;4.43;;;3.60;;
769;SDS011;368;48.698;9.116;2024-03-25T01:12:37;6.70;;;3.27;;
769;SDS011;368;48.698;9.116;2024-03-25T01:15:04;4.27;;;3.27;;
769;SDS011;368;48.698;9.116;2024-03-25T01:17:31;3.77;;;2.77;;
769;SDS011;368;48.698;9.116;2024-03-25T01:19:58;4.47;;;3.50;;
769;SDS011;368;48.698;9.116;2024-03-25T01:22:25;5.03;;;3.27;;
769;SDS011;368;48.698;9.116;2024-03-25T01:24:51;8.33;;;3.70;;
769;SDS011;368;48.698;9.116;2024-03-25T01:27:17;5.80;;;2.97;;
769;SDS011;368;48.698;9.116;2024-03-25T01:29:45;4.53;;;3.17;;
769;SDS011;368;48.698;9.116;2024-03-25T01:32:11;3.67;;;2.93;;
769;SDS011;368;48.698;9.116;2024-03-25T01:34:38;5.90;;;3.20;;
769;SDS011;368;48.698;9.116;2024-03-25T01:37:03;7.00;;;3.43;;
769;SDS011;368;48.698;9.116;2024-03-25T01:39:32;4.10;;;3.70;;
769;SDS011;368;48.698;9.116;2024-03-25T01:41:58;8.00;;;3.03;;
769;SDS011;368;48.698;9.116;2024-03-25T01:44:25;5.20;;;3.20;;
769;SDS011;368;48.698;9.116;2024-03-25T01:46:50;4.27;;;2.90;;
769;SDS011;368;48.698;9.116;2024-03-25T01:49:19;6.10;;;3.83;;
769;SDS011;368;48.698;9.116;2024-03-25T01:51:46;4.47;;;3.00;;
769;SDS011;368;48.698;9.116;2024-03-25T01:54:13;3.83;;;3.53;;
769;SDS011;368;48.698;9.116;2024-03-25T01:56:42;5.63;;;3.60;;
769;SDS011;368;48.698;9.116;2024-03-25T01:59:11;3.90;;;2.70;;
769;SDS011;368;48.698;9.116;2024-03-25T02:01:38;3.40;;;2.60;;
769;SDS011;368;48.698;9.116;2024-03-25T02:04:05;9.30;;;5.97;;
769;SDS011;368;48.698;9.116;2024-03-25T02:06:32;6.33;;;3.23;;
769;SDS011;368;48.698;9.116;2024-03-25T02:09:01;5.27;;;3.20;;
769;SDS011;368;48.698;9.116;2024-03-25T02:11:28;5.47;;;3.53;;
769;SDS011;368;48.698;9.116;2024-03-25T02:13:57;6.00;;;3.63;;
769;SDS011;368;48.698;9.116;2024-03-25T02:16:23;5.07;;;3.43;;
769;SDS011;368;48.698;9.116;2024-03-25T02:18:50;3.90;;;3.03;;
769;SDS011;368;48.698;9.116;2024-03-25T02:21:16;5.73;;;3.77;;
769;SDS011;368;48.698;9.116;2024-03-25T02:23:44;5.80;;;3.70;;
769;SDS011;368;48.698;9.116;2024-03-25T02:26:13;4.60;;;3.20;;
769;SDS011;368;48.698;9.116;2024-03-25T02:28:40;5.80;;;3.40;;
769;SDS011;368;48.698;9.116;2024-03-25T02:31:06;4.70;;;3.70;;
769;SDS011;368;48.698;9.116;2024-03-25T02:33:32;9.87;;;4.60;;
769;SDS011;368;48.698;9.116;2024-03-25T02:35:58;5.60;;;3.77;;
769;SDS011;368;48.698;9.116;2024-03-25T02:38:25;4.17;;;3.20;;
769;SDS011;368;48.698;9.116;2024-03-25T02:40:51;4.37;;;3.60;;
769;SDS011;368;48.698;9.116;2024-03-25T02:43:19;6.10;;;3.20;;
769;SDS011;368;48.698;9.116;2024-03-25T02:45:46;5.90;;;3.67;;
769;SDS011;368;48.698;9.116;2024-03-25T02:48:13;3.57;;;3.27;;
769;SDS011;368;48.698;9.116;2024-03-25T02:50:39;4.80;;;3.43;;
769;SDS011;368;48.698;9.116;2024-03-25T02:53:06;5.80;;;3.40;;
769;SDS011;368;48.698;9.116;2024-03-25T02:55:32;6.33;;;3.57;;
769;SDS011;368;48.698;9.116;2024-03-25T02:57:58;4.77;;;3.53;;
769;SDS011;368;48.698;9.116;2024-03-25T03:00:25;5.10;;;3.90;;
769;SDS011;368;48.698;9.116;2024-03-25T03:02:52;8.23;;;4.77;;
769;SDS011;368;48.698;9.116;2024-03-25T03:05:18;6.67;;;4.57;;
769;SDS011;368;48.698;9.116;2024-03-25T03:07:45;3.90;;;3.10;;
769;SDS011;368;48.698;9.116;2024-03-25T03:10:11;6.07;;;3.70;;
769;SDS011;368;48.698;9.116;2024-03-25T03:12:38;5.87;;;3.83;;
769;SDS011;368;48.698;9.116;2024-03-25T03:15:04;6.10;;;3.57;;
769;SDS011;368;48.698;9.116;2024-03-25T03:17:33;9.03;;;3.20;;
769;SDS011;368;48.698;9.116;2024-03-25T03:19:59;4.13;;;3.73;;
769;SDS011;368;48.698;9.116;2024-03-25T03:22:25;5.00;;;3.73;;
769;SDS011;368;48.698;9.116;2024-03-25T03:24:51;4.63;;;4.23;;
769;SDS011;368;48.698;9.116;2024-03-25T03:27:18;4.30;;;3.90;;
769;SDS011;368;48.698;9.116;2024-03-25T03:29:44;7.03;;;3.97;;
769;SDS011;368;48.698;9.116;2024-03-25T03:32:11;5.30;;;3.50;;
769;SDS011;368;48.698;9.116;2024-03-25T03:34:38;6.53;;;3.40;;
769;SDS011;368;48.698;9.116;2024-03-25T03:37:05;5.13;;;4.10;;
769;SDS011;368;48.698;9.116;2024-03-25T03:39:30;11.50;;;4.43;;
769;SDS011;368;48.698;9.116;2024-03-25T03:41:57;8.23;;;3.93;;
769;SDS011;368;48.698;9.116;2024-03-25T03:44:23;4.80;;;3.33;;
769;SDS011;368;48.698;9.116;2024-03-25T03:46:50;5.20;;;3.67;;
769;SDS011;368;48.698;9.116;2024-03-25T03:49:15;4.70;;;3.43;;
769;SDS011;368;48.698;9.116;2024-03-25T03:51:44;6.23;;;3.73;;
769;SDS011;368;48.698;9.116;2024-03-25T03:54:09;8.47;;;3.73;;
769;SDS011;368;48.698;9.116;2024-03-25T03:56:36;7.30;;;4.10;;
769;SDS011;368;48.698;9.116;2024-03-25T03:59:02;4.33;;;3.03;;
769;SDS011;368;48.698;9.116;2024-03-25T04:01:29;4.53;;;3.20;;
769;SDS011;368;48.698;9.116;2024-03-25T04:03:55;4.67;;;4.20;;
769;SDS011;368;48.698;9.116;2024-03-25T04:06:22;7.07;;;2.90;;
769;SDS011;368;48.698;9.116;2024-03-25T04:08:49;5.50;;;3.93;;
769;SDS011;368;48.698;9.116;2024-03-25T04:11:15;6.70;;;4.23;;
769;SDS011;368;48.698;9.116;2024-03-25T04:13:41;6.77;;;4.30;;
769;SDS011;368;48.698;9.116;2024-03-25T04:16:08;6.53;;;5.53;;
769;SDS011;368;48.698;9.116;2024-03-25T04:18:34;4.30;;;3.37;;
769;SDS011;368;48.698;9.116;2024-03-25T04:21:01;5.97;;;3.90;;
769;SDS011;368;48.698;9.116;2024-03-25T04:23:27;5.47;;;4.03;;
769;SDS011;368;48.698;9.116;2024-03-25T04:25:55;6.03;;;4.30;;
769;SDS011;368;48.698;9.116;2024-03-25T04:28:25;10.23;;;4.20;;
769;SDS011;368;48.698;9.116;2024-03-25T04:30:52;6.10;;;4.00;;
769;SDS011;368;48.698;9.116;2024-03-25T04:33:18;4.57;;;4.10;;
769;SDS011;368;48.698;9.116;2024-03-25T04:35:45;6.10;;;3.70;;
769;SDS011;368;48.698;9.116;2024-03-25T04:38:12;6.00;;;4.00;;
769;SDS011;368;48.698;9.116;2024-03-25T04:40:38;5.37;;;3.90;;
769;SDS011;368;48.698;9.116;2024-03-25T04:43:05;8.13;;;4.27;;
769;SDS011;368;48.698;9.116;2024-03-25T04:45:31;11.57;;;4.90;;
769;SDS011;368;48.698;9.116;2024-03-25T04:47:57;7.30;;;4.17;;
769;SDS011;368;48.698;9.116;2024-03-25T04:50:23;4.77;;;4.00;;
769;SDS011;368;48.698;9.116;2024-03-25T04:52:49;7.03;;;6.33;;
769;SDS011;368;48.698;9.116;2024-03-25T04:55:15;5.57;;;3.80;;
769;SDS011;368;48.698;9.116;2024-03-25T04:57:41;4.40;;;3.33;;
769;SDS011;368;48.698;9.116;2024-03-25T05:00:09;9.73;;;4.40;;
769;SDS011;368;48.698;9.116;2024-03-25T05:02:36;3.80;;;3.43;;
769;SDS011;368;48.698;9.116;2024-03-25T05:05:02;3.50;;;3.20;;
769;SDS011;368;48.698;9.116;2024-03-25T05:07:28;5.77;;;3.40;;
769;SDS011;368;48.698;9.116;2024-03-25T05:09:54;6.23;;;4.30;;
769;SDS011;368;48.698;9.116;2024-03-25T05:12:20;5.60;;;4.30;;
769;SDS011;368;48.698;9.116;2024-03-25T05:14:46;4.77;;;3.43;;
769;SDS011;368;48.698;9.116;2024-03-25T05:17:13;3.43;;;3.13;;
769;SDS011;368;48.698;9.116;2024-03-25T05:19:39;4.73;;;3.53;;
769;SDS011;368;48.698;9.116;2024-03-25T05:22:05;4.77;;;3.17;;
769;SDS011;368;48.698;9.116;2024-03-25T05:24:31;7.67;;;3.70;;
769;SDS011;368;48.698;9.116;2024-03-25T05:26:57;6.73;;;3.90;;
769;SDS011;368;48.698;9.116;2024-03-25T05:29:23;5.40;;;4.00;;
769;SDS011;368;48.698;9.116;2024-03-25T05:31:55;5.70;;;3.80;;
769;SDS011;368;48.698;9.116;2024-03-25T05:34:24;5.80;;;4.20;;
769;SDS011;368;48.698;9.116;2024-03-25T05:36:50;5.73;;;3.63;;
769;SDS011;368;48.698;9.116;2024-03-25T05:39:17;5.33;;;4.07;;
769;SDS011;368;48.698;9.116;2024-03-25T05:41:43;4.70;;;3.53;;
769;SDS011;368;48.698;9.116;2024-03-25T05:44:08;4.07;;;3.67;;
769;SDS011;368;48.698;9.116;2024-03-25T05:46:35;6.40;;;4.03;;
769;SDS011;368;48.698;9.116;2024-03-25T05:49:01;7.40;;;4.27;;
769;SDS011;368;48.698;9.116;2024-03-25T05:51:29;4.60;;;3.70;;
769;SDS011;368;48.698;9.116;2024-03-25T05:53:55;4.90;;;3.97;;
769;SDS011;368;48.698;9.116;2024-03-25T05:56:21;6.17;;;3.90;;
769;SDS011;368;48.698;9.116;2024-03-25T05:58:46;8.50;;;4.30;;
769;SDS011;368;48.698;9.116;2024-03-25T06:01:12;5.03;;;4.40;;
769;SDS011;368;48.698;9.116;2024-03-25T06:03:38;4.37;;;3.63;;
769;SDS011;368;48.698;9.116;2024-03-25T06:06:05;6.80;;;4.70;;
769;SDS011;368;48.698;9.116;2024-03-25T06:08:32;4.53;;;4.10;;
769;SDS011;368;48.698;9.116;2024-03-25T06:11:00;7.03;;;4.50;;
769;SDS011;368;48.698;9.116;2024-03-25T06:13:26;4.87;;;3.33;;
769;SDS011;368;48.698;9.116;2024-03-25T06:15:52;3.87;;;3.47;;
769;SDS011;368;48.698;9.116;2024-03-25T06:18:18;3.10;;;2.80;;
769;SDS011;368;48.698;9.116;2024-03-25T06:20:44;7.80;;;3.80;;
769;SDS011;368;48.698;9.116;2024-03-25T06:23:10;6.43;;;4.00;;
769;SDS011;368;48.698;9.116;2024-03-25T06:25:37;4.13;;;3.60;;
769;SDS011;368;48.698;9.116;2024-03-25T06:28:04;5.17;;;4.50;;
769;SDS011;368;48.698;9.116;2024-03-25T06:30:30;6.00;;;3.37;;
769;SDS011;368;48.698;9.116;2024-03-25T06:33:14;4.97;;;3.50;;
769;SDS011;368;48.698;9.116;2024-03-25T06:35:58;4.60;;;4.20;;
769;SDS011;368;48.698;9.116;2024-03-25T06:38:24;4.70;;;3.20;;
769;SDS011;368;48.698;9.116;2024-03-25T06:40:51;6.90;;;4.23;;
769;SDS011;368;48.698;9.116;2024-03-25T06:43:17;4.30;;;3.27;;
769;SDS011;368;48.698;9.116;2024-03-25T06:45:43;4.07;;;3.30;;
769;SDS011;368;48.698;9.116;2024-03-25T06:48:09;5.27;;;3.63;;
769;SDS011;368;48.698;9.116;2024-03-25T06:50:35;6.93;;;4.27;;
769;SDS011;368;48.698;9.116;2024-03-25T06:53:00;4.23;;;3.50;;
769;SDS011;368;48.698;9.116;2024-03-25T06:55:26;4.37;;;3.50;;
769;SDS011;368;48.698;9.116;2024-03-25T06:57:54;4.90;;;3.70;;
769;SDS011;368;48.698;9.116;2024-03-25T07:00:20;4.67;;;3.30;;
769;SDS011;368;48.698;9.116;2024-03-25T07:02:46;4.60;;;3.80;;
769;SDS011;368;48.698;9.116;2024-03-25T07:05:12;6.20;;;3.77;;
769;SDS011;368;48.698;9.116;2024-03-25T07:07:38;4.30;;;2.93;;
769;SDS011;368;48.698;9.116;2024-03-25T07:10:04;4.67;;;3.20;;
769;SDS011;368;48.698;9.116;2024-03-25T07:12:31;5.20;;;4.10;;
769;SDS011;368;48.698;9.116;2024-03-25T07:14:58;6.10;;;4.00;;
769;SDS011;368;48.698;9.116;2024-03-25T07:17:24;4.57;;;3.43;;
769;SDS011;368;48.698;9.116;2024-03-25T07:19:49;6.00;;;3.37;;
769;SDS011;368;48.698;9.116;2024-03-25T07:22:16;3.67;;;3.10;;
769;SDS011;368;48.698;9.116;2024-03-25T07:24:42;5.57;;;3.37;;
769;SDS011;368;48.698;9.116;2024-03-25T07:27:08;6.23;;;2.77;;
769;SDS011;368;48.698;9.116;2024-03-25T07:29:34;5.07;;;2.87;;
769;SDS011;368;48.698;9.116;2024-03-25T07:32:01;4.00;;;2.80;;
769;SDS011;368;48.698;9.116;2024-03-25T07:34:27;4.37;;;2.57;;
769;SDS011;368;48.698;9.116;2024-03-25T07:36:53;2.87;;;2.60;;
769;SDS011;368;48.698;9.116;2024-03-25T07:39:19;3.83;;;3.13;;
769;SDS011;368;48.698;9.116;2024-03-25T07:41:45;3.67;;;2.70;;
769;SDS011;368;48.698;9.116;2024-03-25T07:44:11;4.00;;;3.00;;
769;SDS011;368;48.698;9.116;2024-03-25T07:46:37;4.83;;;2.70;;
769;SDS011;368;48.698;9.116;2024-03-25T07:49:04;2.73;;;2.33;;
769;SDS011;368;48.698;9.116;2024-03-25T07:51:31;4.50;;;3.83;;
769;SDS011;368;48.698;9.116;2024-03-25T07:53:57;3.23;;;2.70;;
769;SDS011;368;48.698;9.116;2024-03-25T07:56:23;4.73;;;2.80;;
769;SDS011;368;48.698;9.116;2024-03-25T07:58:50;6.23;;;3.10;;
769;SDS011;368;48.698;9.116;2024-03-25T08:01:16;6.23;;;3.00;;
769;SDS011;368;48.698;9.116;2024-03-25T08:03:42;4.27;;;2.60;;
769;SDS011;368;48.698;9.116;2024-03-25T08:06:09;4.10;;;2.00;;
769;SDS011;368;48.698;9.116;2024-03-25T08:08:35;4.97;;;2.70;;
769;SDS011;368;48.698;9.116;2024-03-25T08:11:01;2.80;;;2.07;;
769;SDS011;368;48.698;9.116;2024-03-25T08:13:27;5.03;;;2.57;;
769;SDS011;368;48.698;9.116;2024-03-25T08:15:53;2.67;;;2.30;;
769;SDS011;368;48.698;9.116;2024-03-25T08:18:19;3.47;;;2.70;;
769;SDS011;368;48.698;9.116;2024-03-25T08:20:45;4.90;;;2.43;;
769;SDS011;368;48.698;9.116;2024-03-25T08:23:12;5.03;;;3.17;;
769;SDS011;368;48.698;9.116;2024-03-25T08:25:38;3.53;;;2.57;;
769;SDS011;368;48.698;9.116;2024-03-25T08:28:04;4.20;;;2.13;;
769;SDS011;368;48.698;9.116;2024-03-25T08:30:30;3.73;;;2.43;;
769;SDS011;368;48.698;9.116;2024-03-25T08:32:56;3.33;;;1.83;;
769;SDS011;368;48.698;9.116;2024-03-25T08:35:22;2.33;;;1.53;;
769;SDS011;368;48.698;9.116;2024-03-25T08:37:48;2.20;;;1.60;;
769;SDS011;368;48.698;9.116;2024-03-25T08:40:15;3.03;;;2.20;;
769;SDS011;368;48.698;9.116;2024-03-25T08:42:41;4.53;;;2.30;;
769;SDS011;368;48.698;9.116;2024-03-25T08:45:07;2.30;;;2.10;;
769;SDS011;368;48.698;9.116;2024-03-25T08:47:33;5.70;;;2.03;;
769;SDS011;368;48.698;9.116;2024-03-25T08:49:59;3.53;;;1.80;;
769;SDS011;368;48.698;9.116;2024-03-25T08:52:25;3.40;;;1.83;;
769;SDS011;368;48.698;9.116;2024-03-25T08:54:51;2.23;;;1.80;;
769;SDS011;368;48.698;9.116;2024-03-25T08:57:19;3.33;;;2.17;;
769;SDS011;368;48.698;9.116;2024-03-25T08:59:44;2.00;;;1.70;;
769;SDS011;368;48.698;9.116;2024-03-25T09:02:10;4.23;;;2.80;;
769;SDS011;368;48.698;9.116;2024-03-25T09:04:36;2.70;;;1.87;;
769;SDS011;368;48.698;9.116;2024-03-25T09:07:02;2.50;;;1.90;;
769;SDS011;368;48.698;9.116;2024-03-25T09:09:28;3.03;;;1.67;;
769;SDS011;368;48.698;9.116;2024-03-25T09:12:13;3.50;;;2.03;;
769;SDS011;368;48.698;9.116;2024-03-25T09:14:40;2.33;;;1.27;;
769;SDS011;368;48.698;9.116;2024-03-25T09:17:06;1.90;;;1.63;;
769;SDS011;368;48.698;9.116;2024-03-25T09:19:32;2.17;;;1.50;;
769;SDS011;368;48.698;9.116;2024-03-25T09:21:58;2.80;;;1.60;;
769;SDS011;368;48.698;9.116;2024-03-25T09:24:23;2.10;;;1.40;;
769;SDS011;368;48.698;9.116;2024-03-25T09:26:50;2.27;;;1.50;;
769;SDS011;368;48.698;9.116;2024-03-25T09:29:15;1.50;;;1.30;;
769;SDS011;368;48.698;9.116;2024-03-25T09:31:43;3.13;;;1.80;;
769;SDS011;368;48.698;9.116;2024-03-25T09:34:09;1.90;;;1.30;;
769;SDS011;368;48.698;9.116;2024-03-25T09:36:34;2.53;;;1.23;;
769;SDS011;368;48.698;9.116;2024-03-25T09:39:00;4.50;;;1.97;;
769;SDS011;368;48.698;9.116;2024-03-25T09:41:26;2.57;;;1.53;;
769;SDS011;368;48.698;9.116;2024-03-25T09:43:55;1.73;;;1.20;;
769;SDS011;368;48.698;9.116;2024-03-25T09:46:20;1.60;;;1.03;;
769;SDS011;368;48.698;9.116;2024-03-25T09:48:49;1.60;;;1.30;;
769;SDS011;368;48.698;9.116;2024-03-25T09:51:17;2.30;;;1.53;;
769;SDS011;368;48.698;9.116;2024-03-25T09:53:44;1.97;;;1.50;;
769;SDS011;368;48.698;9.116;2024-03-25T09:56:10;4.20;;;1.67;;
769;SDS011;368;48.698;9.116;2024-03-25T09:58:37;2.63;;;2.00;;
769;SDS011;368;48.698;9.116;2024-03-25T10:01:04;2.10;;;1.57;;
769;SDS011;368;48.698;9.116;2024-03-25T10:03:30;1.70;;;1.20;;
769;SDS011;368;48.698;9.116;2024-03-25T10:05:57;3.07;;;1.40;;
769;SDS011;368;48.698;9.116;2024-03-25T10:08:23;2.33;;;1.67;;
769;SDS011;368;48.698;9.116;2024-03-25T10:10:49;2.07;;;1.30;;
769;SDS011;368;48.698;9.116;2024-03-25T10:13:16;2.20;;;1.80;;
769;SDS011;368;48.698;9.116;2024-03-25T10:15:42;2.37;;;1.20;;
769;SDS011;368;48.698;9.116;2024-03-25T10:18:09;4.20;;;1.70;;
769;SDS011;368;48.698;9.116;2024-03-25T10:20:36;2.23;;;1.40;;
769;SDS011;368;48.698;9.116;2024-03-25T10:23:04;5.30;;;1.70;;
769;SDS011;368;48.698;9.116;2024-03-25T10:25:30;1.83;;;1.70;;
769;SDS011;368;48.698;9.116;2024-03-25T10:27:57;1.53;;;1.30;;
769;SDS011;368;48.698;9.116;2024-03-25T10:30:24;3.13;;;1.43;;
769;SDS011;368;48.698;9.116;2024-03-25T10:32:59;1.80;;;1.30;;
769;SDS011;368;48.698;9.116;2024-03-25T10:35:26;1.70;;;1.50;;
769;SDS011;368;48.698;9.116;2024-03-25T10:37:57;1.90;;;1.40;;
769;SDS011;368;48.698;9.116;2024-03-25T10:40:26;1.90;;;1.70;;
769;SDS011;368;48.698;9.116;2024-03-25T10:42:55;2.17;;;1.30;;
769;SDS011;368;48.698;9.116;2024-03-25T10:45:26;3.00;;;1.33;;
769;SDS011;368;48.698;9.116;2024-03-25T10:47:54;2.80;;;1.60;;
769;SDS011;368;48.698;9.116;2024-03-25T10:50:23;3.57;;;1.50;;
769;SDS011;368;48.698;9.116;2024-03-25T10:52:51;1.70;;;1.40;;
769;SDS011;368;48.698;9.116;2024-03-25T10:55:19;2.10;;;1.27;;
769;SDS011;368;48.698;9.116;2024-03-25T10:57:47;1.60;;;1.27;;
769;SDS011;368;48.698;9.116;2024-03-25T11:00:14;3.23;;;1.93;;
769;SDS011;368;48.698;9.116;2024-03-25T11:02:41;1.97;;;1.33;;
769;SDS011;368;48.698;9.116;2024-03-25T11:05:08;2.03;;;1.47;;
769;SDS011;368;48.698;9.116;2024-03-25T11:07:35;2.93;;;1.80;;
769;SDS011;368;48.698;9.116;2024-03-25T11:10:04;3.20;;;2.03;;
769;SDS011;368;48.698;9.116;2024-03-25T11:12:32;3.60;;;1.93;;
769;SDS011;368;48.698;9.116;2024-03-25T11:15:00;1.70;;;1.60;;
769;SDS011;368;48.698;9.116;2024-03-25T11:17:26;1.93;;;1.83;;
769;SDS011;368;48.698;9.116;2024-03-25T11:19:53;2.30;;;1.90;;
769;SDS011;368;48.698;9.116;2024-03-25T11:22:23;2.80;;;1.80;;
769;SDS011;368;48.698;9.116;2024-03-25T11:24:50;3.10;;;2.13;;
769;SDS011;368;48.698;9.116;2024-03-25T11:27:21;2.00;;;1.80;;
769;SDS011;368;48.698;9.116;2024-03-25T11:29:47;2.77;;;2.40;;
769;SDS011;368;48.698;9.116;2024-03-25T11:32:15;6.10;;;2.43;;
769;SDS011;368;48.698;9.116;2024-03-25T11:34:49;2.70;;;2.30;;
769;SDS011;368;48.698;9.116;2024-03-25T11:37:15;3.10;;;2.37;;
769;SDS011;368;48.698;9.116;2024-03-25T11:39:41;2.47;;;2.27;;
769;SDS011;368;48.698;9.116;2024-03-25T11:42:07;3.23;;;2.13;;
769;SDS011;368;48.698;9.116;2024-03-25T11:44:35;4.30;;;2.13;;
769;SDS011;368;48.698;9.116;2024-03-25T11:47:02;4.47;;;2.43;;
769;SDS011;368;48.698;9.116;2024-03-25T11:49:29;5.90;;;2.37;;
769;SDS011;368;48.698;9.116;2024-03-25T11:51:55;3.43;;;2.47;;
769;SDS011;368;48.698;9.116;2024-03-25T11:54:23;3.70;;;2.40;;
769;SDS011;368;48.698;9.116;2024-03-25T11:56:51;4.27;;;2.73;;
769;SDS011;368;48.698;9.116;2024-03-25T11:59:18;3.93;;;2.50;;
769;SDS011;368;48.698;9.116;2024-03-25T12:01:44;2.90;;;2.60;;
769;SDS011;368;48.698;9.116;2024-03-25T12:04:10;2.97;;;2.70;;
769;SDS011;368;48.698;9.116;2024-03-25T12:06:38;2.90;;;2.60;;
769;SDS011;368;48.698;9.116;2024-03-25T12:09:04;2.60;;;2.40;;
769;SDS011;368;48.698;9.116;2024-03-25T12:11:45;3.07;;;2.47;;
769;SDS011;368;48.698;9.116;2024-03-25T12:14:11;2.60;;;2.30;;
769;SDS011;368;48.698;9.116;2024-03-25T12:16:37;3.67;;;2.30;;
769;SDS011;368;48.698;9.116;2024-03-25T12:19:03;3.70;;;2.60;;
769;SDS011;368;48.698;9.116;2024-03-25T12:21:30;4.20;;;2.63;;
769;SDS011;368;48.698;9.116;2024-03-25T12:23:59;3.17;;;2.60;;
769;SDS011;368;48.698;9.116;2024-03-25T12:26:25;3.60;;;2.33;;
769;SDS011;368;48.698;9.116;2024-03-25T12:28:51;4.40;;;2.80;;
769;SDS011;368;48.698;9.116;2024-03-25T12:31:17;2.90;;;2.27;;
769;SDS011;368;48.698;9.116;2024-03-25T12:33:43;5.23;;;2.53;;
769;SDS011;368;48.698;9.116;2024-03-25T12:36:11;2.60;;;1.87;;
769;SDS011;368;48.698;9.116;2024-03-25T12:38:37;3.43;;;2.00;;
769;SDS011;368;48.698;9.116;2024-03-25T12:41:05;2.00;;;1.90;;
769;SDS011;368;48.698;9.116;2024-03-25T12:43:33;3.27;;;1.80;;
769;SDS011;368;48.698;9.116;2024-03-25T12:45:59;2.40;;;2.10;;
769;SDS011;368;48.698;9.116;2024-03-25T12:48:25;4.10;;;2.37;;
769;SDS011;368;48.698;9.116;2024-03-25T12:50:52;3.23;;;2.23;;
769;SDS011;368;48.698;9.116;2024-03-25T12:53:18;2.47;;;2.10;;
769;SDS011;368;48.698;9.116;2024-03-25T12:55:45;2.77;;;2.13;;
769;SDS011;368;48.698;9.116;2024-03-25T12:58:12;3.80;;;2.20;;
769;SDS011;368;48.698;9.116;2024-03-25T13:00:39;3.37;;;2.00;;
769;SDS011;368;48.698;9.116;2024-03-25T13:03:05;3.40;;;2.57;;
769;SDS011;368;48.698;9.116;2024-03-25T13:05:31;1.50;;;1.40;;
769;SDS011;368;48.698;9.116;2024-03-25T13:07:57;2.20;;;2.00;;
769;SDS011;368;48.698;9.116;2024-03-25T13:10:23;3.10;;;2.17;;
769;SDS011;368;48.698;9.116;2024-03-25T13:12:49;2.70;;;2.40;;
769;SDS011;368;48.698;9.116;2024-03-25T13:15:17;3.03;;;2.20;;
769;SDS011;368;48.698;9.116;2024-03-25T13:17:42;2.33;;;1.90;;
769;SDS011;368;48.698;9.116;2024-03-25T13:20:09;2.60;;;1.70;;
769;SDS011;368;48.698;9.116;2024-03-25T13:22:35;2.43;;;2.20;;
769;SDS011;368;48.698;9.116;2024-03-25T13:25:01;2.70;;;1.90;;
769;SDS011;368;48.698;9.116;2024-03-25T13:27:27;2.80;;;1.50;;
769;SDS011;368;48.698;9.116;2024-03-25T13:29:53;2.90;;;2.10;;
769;SDS011;368;48.698;9.116;2024-03-25T13:32:20;2.80;;;1.90;;
769;SDS011;368;48.698;9.116;2024-03-25T13:34:46;3.70;;;2.10;;
769;SDS011;368;48.698;9.116;2024-03-25T13:37:13;4.50;;;2.33;;
769;SDS011;368;48.698;9.116;2024-03-25T13:39:41;2.63;;;2.20;;
769;SDS011;368;48.698;9.116;2024-03-25T13:42:09;3.37;;;2.10;;
769;SDS011;368;48.698;9.116;2024-03-25T13:44:35;4.50;;;2.33;;
769;SDS011;368;48.698;9.116;2024-03-25T13:47:01;2.87;;;2.00;;
769;SDS011;368;48.698;9.116;2024-03-25T13:49:28;2.10;;;1.90;;
769;SDS011;368;48.698;9.116;2024-03-25T13:51:56;2.53;;;2.20;;
769;SDS011;368;48.698;9.116;2024-03-25T13:54:23;3.13;;;2.07;;
769;SDS011;368;48.698;9.116;2024-03-25T13:56:49;3.20;;;1.80;;
769;SDS011;368;48.698;9.116;2024-03-25T13:59:15;1.80;;;1.70;;
769;SDS011;368;48.698;9.116;2024-03-25T14:01:41;2.27;;;1.70;;
769;SDS011;368;48.698;9.116;2024-03-25T14:04:07;4.13;;;1.90;;
769;SDS011;368;48.698;9.116;2024-03-25T14:06:34;2.47;;;2.27;;
769;SDS011;368;48.698;9.116;2024-03-25T14:09:00;1.70;;;1.60;;
769;SDS011;368;48.698;9.116;2024-03-25T14:11:26;3.13;;;2.10;;
769;SDS011;368;48.698;9.116;2024-03-25T14:13:52;3.87;;;2.17;;
769;SDS011;368;48.698;9.116;2024-03-25T14:16:18;2.70;;;2.50;;
769;SDS011;368;48.698;9.116;2024-03-25T14:18:44;4.13;;;2.30;;
769;SDS011;368;48.698;9.116;2024-03-25T14:21:10;2.37;;;2.17;;
769;SDS011;368;48.698;9.116;2024-03-25T14:23:37;4.07;;;2.03;;
769;SDS011;368;48.698;9.116;2024-03-25T14:26:03;2.10;;;1.90;;
769;SDS011;368;48.698;9.116;2024-03-25T14:28:29;2.47;;;1.80;;
769;SDS011;368;48.698;9.116;2024-03-25T14:30:54;2.20;;;1.73;;
769;SDS011;368;48.698;9.116;2024-03-25T14:33:20;3.73;;;1.97;;
769;SDS011;368;48.698;9.116;2024-03-25T14:35:46;2.97;;;2.37;;
769;SDS011;368;48.698;9.116;2024-03-25T14:38:12;2.17;;;1.80;;
769;SDS011;368;48.698;9.116;2024-03-25T14:40:39;3.33;;;1.97;;
769;SDS011;368;48.698;9.116;2024-03-25T14:43:05;2.30;;;1.80;;
769;SDS011;368;48.698;9.116;2024-03-25T14:45:31;4.90;;;1.80;;
769;SDS011;368;48.698;9.116;2024-03-25T14:47:57;3.97;;;2.30;;
769;SDS011;368;48.698;9.116;2024-03-25T14:50:23;2.70;;;2.30;;
769;SDS011;368;48.698;9.116;2024-03-25T14:52:49;4.47;;;2.10;;
769;SDS011;368;48.698;9.116;2024-03-25T14:55:15;3.03;;;1.73;;
769;SDS011;368;48.698;9.116;2024-03-25T14:57:42;3.50;;;1.70;;
769;SDS011;368;48.698;9.116;2024-03-25T15:00:08;4.40;;;2.77;;
769;SDS011;368;48.698;9.116;2024-03-25T15:02:35;2.80;;;2.33;;
769;SDS011;368;48.698;9.116;2024-03-25T15:05:01;1.83;;;1.73;;
769;SDS011;368;48.698;9.116;2024-03-25T15:07:27;1.93;;;1.70;;
769;SDS011;368;48.698;9.116;2024-03-25T15:09:52;2.57;;;1.90;;
769;SDS011;368;48.698;9.116;2024-03-25T15:12:18;2.50;;;1.90;;
769;SDS011;368;48.698;9.116;2024-03-25T15:14:45;3.80;;;2.00;;
769;SDS011;368;48.698;9.116;2024-03-25T15:17:12;2.73;;;1.53;;
769;SDS011;368;48.698;9.116;2024-03-25T15:19:37;1.70;;;1.40;;
769;SDS011;368;48.698;9.116;2024-03-25T15:22:03;1.70;;;1.50;;
769;SDS011;368;48.698;9.116;2024-03-25T15:24:29;2.70;;;1.80;;
769;SDS011;368;48.698;9.116;2024-03-25T15:26:55;2.00;;;1.57;;
769;SDS011;368;48.698;9.116;2024-03-25T15:29:21;3.63;;;1.70;;
769;SDS011;368;48.698;9.116;2024-03-25T15:31:48;2.40;;;1.70;;
769;SDS011;368;48.698;9.116;2024-03-25T15:34:14;2.43;;;1.67;;
769;SDS011;368;48.698;9.116;2024-03-25T15:36:40;4.50;;;2.70;;
769;SDS011;368;48.698;9.116;2024-03-25T15:39:06;3.63;;;1.47;;
769;SDS011;368;48.698;9.116;2024-03-25T15:41:32;2.20;;;1.73;;